Decoded Metar for KMAN ( in ) (IATA:) | Meteo·Mobile Aviation Weather
aviador You're here:

KMAN Decoded Metar

in
Report Time2019-02-22 03:35:00
UTC Time2019-02-22 03:54:31
Flight Rules vfr VFR
Wind320° at 03 kt
W.Decomp.*RWY 29: 2.6 kt HW 1.5 kt RCW
W.Rank320° ranks 1
Current wind is below 320° avg. (7.8)
Visibility9999 m
Phenomena:N/A
Clouds:N/A
Expected CloudBase > 400 ft AGL from Temp-Dew spread
CeilingNone
Temp-2°C
Dew Point-3°C (93% RH)
AAT-5.5°C
QNH1014 hPa
Raw Report
KMAN 220335Z AUTO 32003KT 10SM CLR M02/M03 A2995 RMK A01=

Extra information for KMAN:More info

Social comments